createdAt,value
2023-05-08T17:01:32.913Z,58.99
2023-05-08T17:05:54.851Z,58.38
2023-05-08T17:10:16.837Z,57.74
2023-05-08T17:14:38.618Z,58.28
2023-05-08T17:19:01.787Z,58.39
2023-05-08T17:23:23.535Z,58.52
2023-05-08T17:27:45.511Z,58.57
2023-05-08T17:32:07.471Z,58.16
2023-05-08T17:36:30.837Z,57.97
2023-05-08T17:40:52.639Z,58.09
2023-05-08T17:45:14.452Z,58.83
2023-05-08T17:49:36.228Z,58.93
2023-05-08T17:53:59.380Z,59.00
2023-05-08T17:58:21.145Z,59.27
2023-05-08T18:02:43.040Z,59.96
2023-05-08T18:07:04.889Z,60.03
2023-05-08T18:11:27.962Z,59.67
2023-05-08T18:15:49.927Z,60.71
2023-05-08T18:20:12.454Z,60.59
2023-05-08T18:24:34.480Z,60.60
2023-05-08T18:28:57.653Z,61.06
2023-05-08T18:33:19.513Z,61.46
2023-05-08T18:37:45.702Z,62.44
2023-05-08T18:42:07.564Z,63.32
2023-05-08T18:46:31.157Z,63.23
2023-05-08T18:50:53.005Z,62.98
2023-05-08T18:55:14.747Z,63.51
2023-05-08T18:59:36.483Z,63.99
2023-05-08T19:03:59.682Z,64.20
2023-05-08T19:08:21.528Z,64.70
2023-05-08T19:12:43.313Z,65.55
2023-05-08T19:17:05.064Z,66.10
2023-05-08T19:21:28.188Z,66.76
2023-05-08T19:25:49.882Z,66.31
2023-05-08T19:30:12.469Z,66.57
2023-05-08T19:34:34.567Z,67.58
2023-05-08T19:38:57.745Z,70.11
2023-05-08T19:43:19.501Z,69.53
2023-05-08T19:47:41.310Z,69.07
2023-05-08T19:52:03.158Z,69.38
2023-05-08T19:56:26.284Z,69.97
2023-05-08T20:09:37.450Z,70.12
2023-05-08T20:14:00.863Z,70.39
2023-05-08T20:18:22.704Z,70.49
2023-05-08T20:22:44.421Z,70.68
2023-05-08T20:27:06.438Z,70.95
2023-05-08T20:31:29.607Z,71.27
2023-05-08T20:35:52.421Z,71.49
2023-05-08T20:40:15.346Z,71.08
2023-05-08T20:44:37.489Z,71.27
2023-05-08T20:49:00.584Z,72.19
2023-05-08T20:53:22.353Z,72.37
2023-05-08T20:57:44.150Z,72.43
2023-05-08T21:02:05.982Z,72.53
2023-05-08T21:06:29.371Z,72.84
2023-05-08T21:10:51.100Z,72.73
2023-05-08T21:15:12.895Z,73.20
2023-05-08T21:19:35.053Z,74.09
2023-05-08T21:23:58.200Z,74.38
2023-05-08T21:28:19.977Z,74.10
2023-05-08T21:32:41.949Z,74.08
2023-05-08T21:37:03.797Z,74.32
2023-05-08T21:41:26.929Z,74.06
2023-05-08T21:45:48.773Z,74.24
2023-05-08T21:50:11.162Z,74.12
2023-05-08T21:54:32.891Z,75.65
2023-05-08T21:58:55.967Z,77.17
2023-05-08T22:03:18.084Z,78.12
2023-05-08T22:07:40.974Z,77.23
2023-05-08T22:12:02.810Z,76.19
2023-05-08T22:16:25.971Z,76.31
2023-05-08T22:20:47.816Z,76.02
2023-05-08T22:25:09.646Z,75.43
2023-05-08T22:29:31.402Z,75.30
2023-05-08T22:33:54.707Z,75.62
2023-05-08T22:38:16.418Z,75.35
2023-05-08T22:42:38.393Z,75.98
2023-05-08T22:47:00.560Z,75.34
2023-05-08T22:51:23.664Z,74.88
2023-05-08T22:55:45.494Z,74.66
2023-05-08T23:00:08.522Z,75.40
2023-05-08T23:04:30.384Z,75.11
2023-05-08T23:08:53.569Z,74.70
2023-05-08T23:13:15.379Z,76.07
2023-05-08T23:17:37.451Z,74.26
2023-05-08T23:21:59.197Z,74.81
2023-05-08T23:26:22.353Z,75.20
2023-05-08T23:30:44.306Z,74.54
2023-05-08T23:35:07.155Z,74.26
2023-05-08T23:39:28.989Z,74.52
2023-05-08T23:43:52.078Z,74.90
2023-05-08T23:48:14.904Z,77.08
2023-05-08T23:52:36.718Z,78.70
2023-05-08T23:56:58.436Z,76.99
